Terminal Aerodrome Forecast
Issued by NWS Norman, OK

Home | Current Version | Previous Version | Text Only | Print | Product List | Glossary On
Versions: 1 2 3 4 5 6 7 8 9 10 11 12 13 14 15 16 17 18 19 20 21 22 23 24 25 26 27
000
FTUS44 KOUN 282320
TAFOKC
TAF
KOKC 282320Z 2900/2924 15010KT P6SM -TSRA BKN080CB
     FM290030 15010KT P6SM SCT080
     FM290200 15010KT P6SM VCSH SCT050 BKN120
      TEMPO 2904/2908 VRB20G35KT 4SM TSRA BKN040CB
     FM290800 10010KT 5SM RA BR BKN030 OVC100
     FM291800 18010G15KT 6SM -RA OVC040 PROB30 2920/2924 5SM +TSRA
      OVC030CB=

USA.gov is the U.S. government's official web portal to all federal, state and local government web resources and services.